sensor_id;sensor_type;location;lat;lon;timestamp;P1;durP1;ratioP1;P2;durP2;ratioP2
13609;SDS011;6876;50.788;4.940;2023-06-14T00:01:14;7.25;;;5.90;;
13609;SDS011;6876;50.788;4.940;2023-06-14T00:04:03;7.95;;;5.78;;
13609;SDS011;6876;50.788;4.940;2023-06-14T00:06:51;6.68;;;6.07;;
13609;SDS011;6876;50.788;4.940;2023-06-14T00:09:39;8.57;;;5.53;;
13609;SDS011;6876;50.788;4.940;2023-06-14T00:12:26;9.60;;;5.97;;
13609;SDS011;6876;50.788;4.940;2023-06-14T00:15:13;10.27;;;5.88;;
13609;SDS011;6876;50.788;4.940;2023-06-14T00:18:01;11.45;;;5.72;;
13609;SDS011;6876;50.788;4.940;2023-06-14T00:20:50;7.28;;;5.70;;
13609;SDS011;6876;50.788;4.940;2023-06-14T00:23:37;9.18;;;5.63;;
13609;SDS011;6876;50.788;4.940;2023-06-14T00:26:25;7.15;;;5.80;;
13609;SDS011;6876;50.788;4.940;2023-06-14T00:29:12;8.02;;;5.45;;
13609;SDS011;6876;50.788;4.940;2023-06-14T00:31:59;8.40;;;5.70;;
13609;SDS011;6876;50.788;4.940;2023-06-14T00:34:47;6.07;;;5.47;;
13609;SDS011;6876;50.788;4.940;2023-06-14T00:37:35;10.30;;;5.47;;
13609;SDS011;6876;50.788;4.940;2023-06-14T00:40:23;13.10;;;6.10;;
13609;SDS011;6876;50.788;4.940;2023-06-14T00:43:10;6.65;;;5.80;;
13609;SDS011;6876;50.788;4.940;2023-06-14T00:45:57;10.48;;;5.85;;
13609;SDS011;6876;50.788;4.940;2023-06-14T00:48:44;6.60;;;5.88;;
13609;SDS011;6876;50.788;4.940;2023-06-14T00:51:33;7.55;;;6.00;;
13609;SDS011;6876;50.788;4.940;2023-06-14T00:54:21;9.85;;;6.05;;
13609;SDS011;6876;50.788;4.940;2023-06-14T00:57:09;7.65;;;6.00;;
13609;SDS011;6876;50.788;4.940;2023-06-14T00:59:57;8.73;;;5.57;;
13609;SDS011;6876;50.788;4.940;2023-06-14T01:02:44;9.73;;;5.43;;
13609;SDS011;6876;50.788;4.940;2023-06-14T01:05:32;7.35;;;5.97;;
13609;SDS011;6876;50.788;4.940;2023-06-14T01:08:21;7.82;;;5.95;;
13609;SDS011;6876;50.788;4.940;2023-06-14T01:11:18;9.07;;;5.95;;
13609;SDS011;6876;50.788;4.940;2023-06-14T01:14:09;7.38;;;6.15;;
13609;SDS011;6876;50.788;4.940;2023-06-14T01:16:59;9.18;;;6.00;;
13609;SDS011;6876;50.788;4.940;2023-06-14T01:19:48;6.45;;;5.85;;
13609;SDS011;6876;50.788;4.940;2023-06-14T01:22:48;7.78;;;5.93;;
13609;SDS011;6876;50.788;4.940;2023-06-14T01:25:38;8.57;;;6.43;;
13609;SDS011;6876;50.788;4.940;2023-06-14T01:28:26;6.80;;;6.00;;
13609;SDS011;6876;50.788;4.940;2023-06-14T01:31:17;8.40;;;6.28;;
13609;SDS011;6876;50.788;4.940;2023-06-14T01:34:07;7.85;;;6.28;;
13609;SDS011;6876;50.788;4.940;2023-06-14T01:36:55;6.68;;;5.88;;
13609;SDS011;6876;50.788;4.940;2023-06-14T01:39:44;12.30;;;6.28;;
13609;SDS011;6876;50.788;4.940;2023-06-14T01:42:32;8.57;;;6.57;;
13609;SDS011;6876;50.788;4.940;2023-06-14T01:45:22;8.18;;;5.70;;
13609;SDS011;6876;50.788;4.940;2023-06-14T01:48:10;8.50;;;6.15;;
13609;SDS011;6876;50.788;4.940;2023-06-14T01:50:58;9.52;;;6.43;;
13609;SDS011;6876;50.788;4.940;2023-06-14T01:53:45;8.48;;;5.97;;
13609;SDS011;6876;50.788;4.940;2023-06-14T01:56:34;8.68;;;6.60;;
13609;SDS011;6876;50.788;4.940;2023-06-14T01:59:21;8.85;;;6.47;;
13609;SDS011;6876;50.788;4.940;2023-06-14T02:02:08;7.95;;;6.53;;
13609;SDS011;6876;50.788;4.940;2023-06-14T02:04:55;9.77;;;6.72;;
13609;SDS011;6876;50.788;4.940;2023-06-14T02:07:43;7.05;;;6.35;;
13609;SDS011;6876;50.788;4.940;2023-06-14T02:10:30;9.13;;;5.82;;
13609;SDS011;6876;50.788;4.940;2023-06-14T02:13:18;7.07;;;6.43;;
13609;SDS011;6876;50.788;4.940;2023-06-14T02:16:06;10.90;;;6.80;;
13609;SDS011;6876;50.788;4.940;2023-06-14T02:18:53;7.38;;;6.25;;
13609;SDS011;6876;50.788;4.940;2023-06-14T02:21:40;8.73;;;6.82;;
13609;SDS011;6876;50.788;4.940;2023-06-14T02:24:28;11.15;;;6.80;;
13609;SDS011;6876;50.788;4.940;2023-06-14T02:27:15;7.93;;;6.20;;
13609;SDS011;6876;50.788;4.940;2023-06-14T02:30:04;8.63;;;6.20;;
13609;SDS011;6876;50.788;4.940;2023-06-14T02:32:52;8.75;;;6.45;;
13609;SDS011;6876;50.788;4.940;2023-06-14T02:35:39;8.75;;;6.68;;
13609;SDS011;6876;50.788;4.940;2023-06-14T02:38:27;7.05;;;6.35;;
13609;SDS011;6876;50.788;4.940;2023-06-14T02:41:14;9.07;;;6.95;;
13609;SDS011;6876;50.788;4.940;2023-06-14T02:44:01;12.55;;;7.18;;
13609;SDS011;6876;50.788;4.940;2023-06-14T02:46:50;9.88;;;6.82;;
13609;SDS011;6876;50.788;4.940;2023-06-14T02:49:37;9.90;;;6.95;;
13609;SDS011;6876;50.788;4.940;2023-06-14T02:52:25;9.55;;;7.03;;
13609;SDS011;6876;50.788;4.940;2023-06-14T02:55:12;17.42;;;7.75;;
13609;SDS011;6876;50.788;4.940;2023-06-14T02:57:59;17.05;;;7.68;;
13609;SDS011;6876;50.788;4.940;2023-06-14T03:00:46;12.73;;;7.00;;
13609;SDS011;6876;50.788;4.940;2023-06-14T03:03:35;16.27;;;8.00;;
13609;SDS011;6876;50.788;4.940;2023-06-14T03:06:22;11.30;;;7.90;;
13609;SDS011;6876;50.788;4.940;2023-06-14T03:09:11;16.38;;;8.48;;
13609;SDS011;6876;50.788;4.940;2023-06-14T03:11:58;12.65;;;7.80;;
13609;SDS011;6876;50.788;4.940;2023-06-14T03:14:46;11.45;;;7.70;;
13609;SDS011;6876;50.788;4.940;2023-06-14T03:17:33;10.03;;;8.07;;
13609;SDS011;6876;50.788;4.940;2023-06-14T03:20:25;19.48;;;8.00;;
13609;SDS011;6876;50.788;4.940;2023-06-14T03:23:18;24.33;;;8.83;;
13609;SDS011;6876;50.788;4.940;2023-06-14T03:26:06;12.80;;;8.07;;
13609;SDS011;6876;50.788;4.940;2023-06-14T03:28:54;10.70;;;8.48;;
13609;SDS011;6876;50.788;4.940;2023-06-14T03:34:44;14.38;;;8.65;;
13609;SDS011;6876;50.788;4.940;2023-06-14T03:37:33;14.57;;;8.68;;
13609;SDS011;6876;50.788;4.940;2023-06-14T03:40:20;12.98;;;8.60;;
13609;SDS011;6876;50.788;4.940;2023-06-14T03:43:12;13.80;;;9.20;;
13609;SDS011;6876;50.788;4.940;2023-06-14T03:45:59;11.80;;;9.03;;
13609;SDS011;6876;50.788;4.940;2023-06-14T03:48:46;10.85;;;9.07;;
13609;SDS011;6876;50.788;4.940;2023-06-14T03:51:33;15.20;;;9.50;;
13609;SDS011;6876;50.788;4.940;2023-06-14T03:54:22;12.27;;;9.50;;
13609;SDS011;6876;50.788;4.940;2023-06-14T03:57:09;17.75;;;8.73;;
13609;SDS011;6876;50.788;4.940;2023-06-14T03:59:57;15.90;;;8.98;;
13609;SDS011;6876;50.788;4.940;2023-06-14T04:02:44;13.60;;;8.43;;
13609;SDS011;6876;50.788;4.940;2023-06-14T04:05:31;17.25;;;8.70;;
13609;SDS011;6876;50.788;4.940;2023-06-14T04:08:18;15.57;;;9.48;;
13609;SDS011;6876;50.788;4.940;2023-06-14T04:11:09;17.10;;;8.50;;
13609;SDS011;6876;50.788;4.940;2023-06-14T04:13:56;20.40;;;9.05;;
13609;SDS011;6876;50.788;4.940;2023-06-14T04:16:44;28.42;;;8.73;;
13609;SDS011;6876;50.788;4.940;2023-06-14T04:19:32;27.60;;;9.57;;
13609;SDS011;6876;50.788;4.940;2023-06-14T04:22:19;18.73;;;9.23;;
13609;SDS011;6876;50.788;4.940;2023-06-14T04:25:07;15.70;;;8.73;;
13609;SDS011;6876;50.788;4.940;2023-06-14T04:27:56;15.00;;;9.65;;
13609;SDS011;6876;50.788;4.940;2023-06-14T04:30:43;14.63;;;8.93;;
13609;SDS011;6876;50.788;4.940;2023-06-14T04:33:32;12.30;;;8.65;;
13609;SDS011;6876;50.788;4.940;2023-06-14T04:36:28;16.75;;;8.70;;
13609;SDS011;6876;50.788;4.940;2023-06-14T04:39:16;12.13;;;8.75;;
13609;SDS011;6876;50.788;4.940;2023-06-14T04:42:04;14.88;;;9.20;;
13609;SDS011;6876;50.788;4.940;2023-06-14T04:44:54;12.18;;;8.75;;
13609;SDS011;6876;50.788;4.940;2023-06-14T04:47:41;23.20;;;10.10;;
13609;SDS011;6876;50.788;4.940;2023-06-14T04:50:29;18.73;;;9.30;;
13609;SDS011;6876;50.788;4.940;2023-06-14T04:53:18;19.73;;;9.13;;
13609;SDS011;6876;50.788;4.940;2023-06-14T04:56:08;79.38;;;12.80;;
13609;SDS011;6876;50.788;4.940;2023-06-14T04:58:55;62.75;;;11.70;;
13609;SDS011;6876;50.788;4.940;2023-06-14T05:01:44;68.05;;;12.73;;
13609;SDS011;6876;50.788;4.940;2023-06-14T05:04:33;40.47;;;11.13;;
13609;SDS011;6876;50.788;4.940;2023-06-14T05:07:25;34.95;;;10.98;;
13609;SDS011;6876;50.788;4.940;2023-06-14T05:10:12;20.55;;;10.32;;
13609;SDS011;6876;50.788;4.940;2023-06-14T05:12:59;34.30;;;10.93;;
13609;SDS011;6876;50.788;4.940;2023-06-14T05:15:47;27.17;;;9.65;;
13609;SDS011;6876;50.788;4.940;2023-06-14T05:18:35;16.13;;;9.63;;
13609;SDS011;6876;50.788;4.940;2023-06-14T05:21:23;14.95;;;9.05;;
13609;SDS011;6876;50.788;4.940;2023-06-14T05:24:11;14.55;;;8.90;;
13609;SDS011;6876;50.788;4.940;2023-06-14T05:26:58;16.02;;;9.35;;
13609;SDS011;6876;50.788;4.940;2023-06-14T05:29:45;18.13;;;8.88;;
13609;SDS011;6876;50.788;4.940;2023-06-14T05:32:33;18.33;;;9.38;;
13609;SDS011;6876;50.788;4.940;2023-06-14T05:35:22;20.23;;;9.02;;
13609;SDS011;6876;50.788;4.940;2023-06-14T05:38:12;17.23;;;8.95;;
13609;SDS011;6876;50.788;4.940;2023-06-14T05:40:59;18.65;;;9.27;;
13609;SDS011;6876;50.788;4.940;2023-06-14T05:43:46;12.38;;;8.85;;
13609;SDS011;6876;50.788;4.940;2023-06-14T05:46:33;11.35;;;8.55;;
13609;SDS011;6876;50.788;4.940;2023-06-14T05:49:21;12.13;;;9.25;;
13609;SDS011;6876;50.788;4.940;2023-06-14T05:52:09;12.82;;;9.38;;
13609;SDS011;6876;50.788;4.940;2023-06-14T05:54:58;11.00;;;8.65;;
13609;SDS011;6876;50.788;4.940;2023-06-14T05:57:46;10.98;;;9.02;;
13609;SDS011;6876;50.788;4.940;2023-06-14T06:00:34;9.75;;;8.60;;
13609;SDS011;6876;50.788;4.940;2023-06-14T06:03:21;13.40;;;9.25;;
13609;SDS011;6876;50.788;4.940;2023-06-14T06:06:08;15.73;;;9.43;;
13609;SDS011;6876;50.788;4.940;2023-06-14T06:08:57;11.02;;;9.05;;
13609;SDS011;6876;50.788;4.940;2023-06-14T06:11:45;10.05;;;9.05;;
13609;SDS011;6876;50.788;4.940;2023-06-14T06:14:33;10.93;;;9.82;;
13609;SDS011;6876;50.788;4.940;2023-06-14T06:17:20;9.80;;;8.80;;
13609;SDS011;6876;50.788;4.940;2023-06-14T06:20:08;14.48;;;9.52;;
13609;SDS011;6876;50.788;4.940;2023-06-14T06:22:57;13.25;;;9.07;;
13609;SDS011;6876;50.788;4.940;2023-06-14T06:25:45;11.43;;;8.95;;
13609;SDS011;6876;50.788;4.940;2023-06-14T06:28:32;11.02;;;9.38;;
13609;SDS011;6876;50.788;4.940;2023-06-14T06:31:20;17.45;;;9.90;;
13609;SDS011;6876;50.788;4.940;2023-06-14T06:34:08;14.05;;;9.75;;
13609;SDS011;6876;50.788;4.940;2023-06-14T06:36:55;13.30;;;9.07;;
13609;SDS011;6876;50.788;4.940;2023-06-14T06:39:42;14.70;;;9.25;;
13609;SDS011;6876;50.788;4.940;2023-06-14T06:42:31;21.98;;;9.98;;
13609;SDS011;6876;50.788;4.940;2023-06-14T06:45:18;16.35;;;9.77;;
13609;SDS011;6876;50.788;4.940;2023-06-14T06:48:06;14.00;;;9.07;;
13609;SDS011;6876;50.788;4.940;2023-06-14T06:50:55;14.40;;;9.45;;
13609;SDS011;6876;50.788;4.940;2023-06-14T06:53:42;13.68;;;9.07;;
13609;SDS011;6876;50.788;4.940;2023-06-14T06:56:30;9.63;;;8.60;;
13609;SDS011;6876;50.788;4.940;2023-06-14T06:59:19;11.55;;;9.02;;
13609;SDS011;6876;50.788;4.940;2023-06-14T07:02:06;14.38;;;8.32;;
13609;SDS011;6876;50.788;4.940;2023-06-14T07:04:53;13.05;;;9.05;;
13609;SDS011;6876;50.788;4.940;2023-06-14T07:07:40;12.18;;;9.05;;
13609;SDS011;6876;50.788;4.940;2023-06-14T07:10:28;15.25;;;8.60;;
13609;SDS011;6876;50.788;4.940;2023-06-14T07:13:15;11.20;;;8.60;;
13609;SDS011;6876;50.788;4.940;2023-06-14T07:16:04;11.82;;;8.48;;
13609;SDS011;6876;50.788;4.940;2023-06-14T07:18:52;9.15;;;8.30;;
13609;SDS011;6876;50.788;4.940;2023-06-14T07:21:39;10.73;;;8.15;;
13609;SDS011;6876;50.788;4.940;2023-06-14T07:24:26;13.38;;;8.13;;
13609;SDS011;6876;50.788;4.940;2023-06-14T07:27:14;9.18;;;8.30;;
13609;SDS011;6876;50.788;4.940;2023-06-14T07:30:01;16.95;;;9.07;;
13609;SDS011;6876;50.788;4.940;2023-06-14T07:32:51;19.73;;;8.18;;
13609;SDS011;6876;50.788;4.940;2023-06-14T07:35:38;11.65;;;8.43;;
13609;SDS011;6876;50.788;4.940;2023-06-14T07:38:25;10.57;;;8.98;;
13609;SDS011;6876;50.788;4.940;2023-06-14T07:41:13;13.23;;;8.13;;
13609;SDS011;6876;50.788;4.940;2023-06-14T07:44:00;11.35;;;9.43;;
13609;SDS011;6876;50.788;4.940;2023-06-14T07:46:48;20.15;;;8.20;;
13609;SDS011;6876;50.788;4.940;2023-06-14T07:49:37;13.10;;;8.70;;
13609;SDS011;6876;50.788;4.940;2023-06-14T07:52:24;9.82;;;8.32;;
13609;SDS011;6876;50.788;4.940;2023-06-14T07:55:11;11.32;;;7.80;;
13609;SDS011;6876;50.788;4.940;2023-06-14T07:57:58;10.48;;;8.07;;
13609;SDS011;6876;50.788;4.940;2023-06-14T08:00:46;12.52;;;7.43;;
13609;SDS011;6876;50.788;4.940;2023-06-14T08:03:33;13.70;;;8.27;;
13609;SDS011;6876;50.788;4.940;2023-06-14T08:06:22;19.88;;;7.85;;
13609;SDS011;6876;50.788;4.940;2023-06-14T08:09:09;9.50;;;7.63;;
13609;SDS011;6876;50.788;4.940;2023-06-14T08:11:57;16.17;;;7.82;;
13609;SDS011;6876;50.788;4.940;2023-06-14T08:14:44;11.45;;;7.40;;
13609;SDS011;6876;50.788;4.940;2023-06-14T08:17:31;10.43;;;7.90;;
13609;SDS011;6876;50.788;4.940;2023-06-14T08:20:18;13.43;;;7.60;;
13609;SDS011;6876;50.788;4.940;2023-06-14T08:23:07;19.73;;;8.07;;
13609;SDS011;6876;50.788;4.940;2023-06-14T08:25:54;18.67;;;8.10;;
13609;SDS011;6876;50.788;4.940;2023-06-14T08:28:41;19.23;;;7.82;;
13609;SDS011;6876;50.788;4.940;2023-06-14T08:31:29;10.50;;;7.20;;
13609;SDS011;6876;50.788;4.940;2023-06-14T08:34:17;7.70;;;6.90;;
13609;SDS011;6876;50.788;4.940;2023-06-14T08:37:05;15.95;;;7.40;;
13609;SDS011;6876;50.788;4.940;2023-06-14T08:39:54;21.05;;;7.75;;
13609;SDS011;6876;50.788;4.940;2023-06-14T08:42:42;11.05;;;6.63;;
13609;SDS011;6876;50.788;4.940;2023-06-14T08:45:31;9.15;;;6.13;;
13609;SDS011;6876;50.788;4.940;2023-06-14T08:48:18;10.43;;;6.13;;
13609;SDS011;6876;50.788;4.940;2023-06-14T08:51:06;9.38;;;5.90;;
13609;SDS011;6876;50.788;4.940;2023-06-14T08:53:56;10.80;;;6.00;;
13609;SDS011;6876;50.788;4.940;2023-06-14T08:56:45;11.45;;;6.30;;
13609;SDS011;6876;50.788;4.940;2023-06-14T08:59:33;10.10;;;5.70;;
13609;SDS011;6876;50.788;4.940;2023-06-14T09:02:24;8.77;;;5.78;;
13609;SDS011;6876;50.788;4.940;2023-06-14T09:05:11;8.38;;;5.15;;
13609;SDS011;6876;50.788;4.940;2023-06-14T09:07:59;9.30;;;5.50;;
13609;SDS011;6876;50.788;4.940;2023-06-14T09:10:47;11.95;;;5.78;;
13609;SDS011;6876;50.788;4.940;2023-06-14T09:13:35;7.53;;;5.32;;
13609;SDS011;6876;50.788;4.940;2023-06-14T09:16:23;8.05;;;5.40;;
13609;SDS011;6876;50.788;4.940;2023-06-14T09:19:13;7.00;;;4.85;;
13609;SDS011;6876;50.788;4.940;2023-06-14T09:22:07;9.48;;;5.30;;
13609;SDS011;6876;50.788;4.940;2023-06-14T09:24:57;11.30;;;5.88;;
13609;SDS011;6876;50.788;4.940;2023-06-14T09:27:45;14.90;;;5.97;;
13609;SDS011;6876;50.788;4.940;2023-06-14T09:30:35;19.25;;;6.55;;
13609;SDS011;6876;50.788;4.940;2023-06-14T09:33:23;12.05;;;5.43;;
13609;SDS011;6876;50.788;4.940;2023-06-14T09:36:12;14.00;;;5.65;;
13609;SDS011;6876;50.788;4.940;2023-06-14T09:39:02;16.23;;;5.75;;
13609;SDS011;6876;50.788;4.940;2023-06-14T09:41:51;10.35;;;5.75;;
13609;SDS011;6876;50.788;4.940;2023-06-14T09:44:38;6.82;;;4.93;;
13609;SDS011;6876;50.788;4.940;2023-06-14T09:47:27;8.65;;;5.18;;
13609;SDS011;6876;50.788;4.940;2023-06-14T09:50:14;8.73;;;5.40;;
13609;SDS011;6876;50.788;4.940;2023-06-14T09:53:02;16.98;;;5.95;;
13609;SDS011;6876;50.788;4.940;2023-06-14T09:55:52;6.97;;;4.47;;
13609;SDS011;6876;50.788;4.940;2023-06-14T09:58:41;5.65;;;4.53;;
13609;SDS011;6876;50.788;4.940;2023-06-14T10:01:29;7.72;;;4.28;;
13609;SDS011;6876;50.788;4.940;2023-06-14T10:04:19;10.27;;;4.43;;
13609;SDS011;6876;50.788;4.940;2023-06-14T10:07:08;8.20;;;4.38;;
13609;SDS011;6876;50.788;4.940;2023-06-14T10:09:57;14.98;;;4.70;;
13609;SDS011;6876;50.788;4.940;2023-06-14T10:12:44;7.95;;;4.53;;
13609;SDS011;6876;50.788;4.940;2023-06-14T10:15:32;7.55;;;4.18;;
13609;SDS011;6876;50.788;4.940;2023-06-14T10:18:28;10.32;;;4.40;;
13609;SDS011;6876;50.788;4.940;2023-06-14T10:21:24;9.15;;;4.07;;
13609;SDS011;6876;50.788;4.940;2023-06-14T10:24:20;5.82;;;3.97;;
13609;SDS011;6876;50.788;4.940;2023-06-14T10:27:14;6.43;;;3.50;;
13609;SDS011;6876;50.788;4.940;2023-06-14T10:30:05;10.52;;;4.20;;
13609;SDS011;6876;50.788;4.940;2023-06-14T10:36:08;14.88;;;4.30;;
13609;SDS011;6876;50.788;4.940;2023-06-14T10:38:58;16.05;;;4.22;;
13609;SDS011;6876;50.788;4.940;2023-06-14T10:41:50;6.65;;;3.80;;
13609;SDS011;6876;50.788;4.940;2023-06-14T10:44:40;10.27;;;4.20;;
13609;SDS011;6876;50.788;4.940;2023-06-14T10:47:29;11.27;;;3.70;;
13609;SDS011;6876;50.788;4.940;2023-06-14T10:50:17;11.25;;;4.13;;
13609;SDS011;6876;50.788;4.940;2023-06-14T10:53:21;10.00;;;3.88;;
13609;SDS011;6876;50.788;4.940;2023-06-14T10:56:10;7.93;;;3.42;;
13609;SDS011;6876;50.788;4.940;2023-06-14T10:59:11;21.42;;;4.00;;
13609;SDS011;6876;50.788;4.940;2023-06-14T11:05:14;4.25;;;3.85;;
13609;SDS011;6876;50.788;4.940;2023-06-14T11:08:12;7.10;;;3.30;;
13609;SDS011;6876;50.788;4.940;2023-06-14T11:11:15;8.20;;;3.30;;
13609;SDS011;6876;50.788;4.940;2023-06-14T11:14:02;6.35;;;3.67;;
13609;SDS011;6876;50.788;4.940;2023-06-14T11:16:50;6.18;;;3.25;;
13609;SDS011;6876;50.788;4.940;2023-06-14T11:19:38;9.07;;;3.70;;
13609;SDS011;6876;50.788;4.940;2023-06-14T11:22:25;5.65;;;3.38;;
13609;SDS011;6876;50.788;4.940;2023-06-14T11:25:12;4.60;;;3.38;;
13609;SDS011;6876;50.788;4.940;2023-06-14T11:28:01;12.20;;;3.30;;
13609;SDS011;6876;50.788;4.940;2023-06-14T11:30:48;8.52;;;3.60;;
13609;SDS011;6876;50.788;4.940;2023-06-14T11:33:49;4.50;;;3.25;;
13609;SDS011;6876;50.788;4.940;2023-06-14T11:36:37;9.55;;;3.90;;
13609;SDS011;6876;50.788;4.940;2023-06-14T11:39:24;17.95;;;4.00;;
13609;SDS011;6876;50.788;4.940;2023-06-14T11:42:13;19.13;;;3.75;;
13609;SDS011;6876;50.788;4.940;2023-06-14T11:45:03;6.35;;;3.70;;
13609;SDS011;6876;50.788;4.940;2023-06-14T11:47:51;9.90;;;4.03;;
13609;SDS011;6876;50.788;4.940;2023-06-14T11:50:40;7.60;;;3.63;;
13609;SDS011;6876;50.788;4.940;2023-06-14T11:53:28;20.13;;;3.88;;
13609;SDS011;6876;50.788;4.940;2023-06-14T11:56:16;11.68;;;3.53;;
13609;SDS011;6876;50.788;4.940;2023-06-14T11:59:03;3.58;;;3.10;;
13609;SDS011;6876;50.788;4.940;2023-06-14T12:01:54;6.78;;;3.63;;
13609;SDS011;6876;50.788;4.940;2023-06-14T12:04:41;8.57;;;3.20;;
13609;SDS011;6876;50.788;4.940;2023-06-14T12:07:28;8.75;;;3.60;;
13609;SDS011;6876;50.788;4.940;2023-06-14T12:10:17;6.85;;;3.30;;
13609;SDS011;6876;50.788;4.940;2023-06-14T12:13:04;8.30;;;3.08;;
13609;SDS011;6876;50.788;4.940;2023-06-14T12:15:55;7.75;;;3.38;;
13609;SDS011;6876;50.788;4.940;2023-06-14T12:18:44;4.35;;;2.92;;
13609;SDS011;6876;50.788;4.940;2023-06-14T12:21:31;8.13;;;3.35;;
13609;SDS011;6876;50.788;4.940;2023-06-14T12:24:21;6.55;;;3.10;;
13609;SDS011;6876;50.788;4.940;2023-06-14T12:27:15;10.00;;;3.00;;
13609;SDS011;6876;50.788;4.940;2023-06-14T12:30:05;3.63;;;2.80;;
13609;SDS011;6876;50.788;4.940;2023-06-14T12:32:54;18.60;;;3.53;;
13609;SDS011;6876;50.788;4.940;2023-06-14T12:35:43;23.83;;;4.00;;
13609;SDS011;6876;50.788;4.940;2023-06-14T12:38:31;7.18;;;2.35;;
13609;SDS011;6876;50.788;4.940;2023-06-14T12:41:18;33.60;;;3.90;;
13609;SDS011;6876;50.788;4.940;2023-06-14T12:44:06;9.90;;;2.40;;
13609;SDS011;6876;50.788;4.940;2023-06-14T12:46:54;5.07;;;2.30;;
13609;SDS011;6876;50.788;4.940;2023-06-14T12:49:41;5.43;;;2.20;;
13609;SDS011;6876;50.788;4.940;2023-06-14T12:52:30;6.80;;;2.00;;
13609;SDS011;6876;50.788;4.940;2023-06-14T12:55:17;9.57;;;2.55;;
13609;SDS011;6876;50.788;4.940;2023-06-14T12:58:05;9.30;;;1.80;;
13609;SDS011;6876;50.788;4.940;2023-06-14T13:00:52;24.83;;;3.13;;
13609;SDS011;6876;50.788;4.940;2023-06-14T13:03:40;10.48;;;2.65;;
13609;SDS011;6876;50.788;4.940;2023-06-14T13:06:27;8.77;;;2.10;;
13609;SDS011;6876;50.788;4.940;2023-06-14T13:09:18;14.05;;;2.83;;
13609;SDS011;6876;50.788;4.940;2023-06-14T13:12:06;4.60;;;1.70;;
13609;SDS011;6876;50.788;4.940;2023-06-14T13:14:56;5.97;;;2.22;;
13609;SDS011;6876;50.788;4.940;2023-06-14T13:17:43;10.20;;;2.33;;
13609;SDS011;6876;50.788;4.940;2023-06-14T13:20:34;5.07;;;1.90;;
13609;SDS011;6876;50.788;4.940;2023-06-14T13:23:21;6.22;;;1.70;;
13609;SDS011;6876;50.788;4.940;2023-06-14T13:26:10;31.75;;;2.90;;
13609;SDS011;6876;50.788;4.940;2023-06-14T13:28:58;5.63;;;1.77;;
13609;SDS011;6876;50.788;4.940;2023-06-14T13:31:45;4.85;;;1.65;;
13609;SDS011;6876;50.788;4.940;2023-06-14T13:34:32;4.35;;;2.17;;
13609;SDS011;6876;50.788;4.940;2023-06-14T13:37:19;8.68;;;2.00;;
13609;SDS011;6876;50.788;4.940;2023-06-14T13:40:08;8.55;;;2.30;;
13609;SDS011;6876;50.788;4.940;2023-06-14T13:42:57;14.77;;;2.53;;
13609;SDS011;6876;50.788;4.940;2023-06-14T13:45:47;6.30;;;2.05;;
13609;SDS011;6876;50.788;4.940;2023-06-14T13:48:36;3.50;;;1.80;;
13609;SDS011;6876;50.788;4.940;2023-06-14T13:51:23;4.55;;;2.05;;
13609;SDS011;6876;50.788;4.940;2023-06-14T13:54:12;3.85;;;1.80;;
13609;SDS011;6876;50.788;4.940;2023-06-14T13:57:04;5.15;;;1.77;;
13609;SDS011;6876;50.788;4.940;2023-06-14T13:59:53;3.67;;;1.75;;
13609;SDS011;6876;50.788;4.940;2023-06-14T14:02:46;8.88;;;2.40;;
13609;SDS011;6876;50.788;4.940;2023-06-14T14:05:36;17.83;;;2.50;;
13609;SDS011;6876;50.788;4.940;2023-06-14T14:08:23;4.00;;;1.83;;
13609;SDS011;6876;50.788;4.940;2023-06-14T14:11:11;9.98;;;1.92;;
13609;SDS011;6876;50.788;4.940;2023-06-14T14:13:59;3.80;;;1.98;;
13609;SDS011;6876;50.788;4.940;2023-06-14T14:16:48;4.68;;;1.88;;
13609;SDS011;6876;50.788;4.940;2023-06-14T14:19:36;10.65;;;2.30;;
13609;SDS011;6876;50.788;4.940;2023-06-14T14:22:24;4.38;;;2.00;;
13609;SDS011;6876;50.788;4.940;2023-06-14T14:25:11;7.38;;;1.98;;
13609;SDS011;6876;50.788;4.940;2023-06-14T14:27:58;3.40;;;1.95;;
13609;SDS011;6876;50.788;4.940;2023-06-14T14:30:45;4.93;;;2.05;;
13609;SDS011;6876;50.788;4.940;2023-06-14T14:33:35;3.67;;;2.20;;
13609;SDS011;6876;50.788;4.940;2023-06-14T14:36:22;4.20;;;2.00;;
13609;SDS011;6876;50.788;4.940;2023-06-14T14:39:09;4.65;;;1.70;;
13609;SDS011;6876;50.788;4.940;2023-06-14T14:41:57;3.90;;;1.80;;
13609;SDS011;6876;50.788;4.940;2023-06-14T14:44:44;6.10;;;2.10;;
13609;SDS011;6876;50.788;4.940;2023-06-14T14:47:31;4.72;;;2.15;;
13609;SDS011;6876;50.788;4.940;2023-06-14T14:50:20;5.13;;;2.50;;
13609;SDS011;6876;50.788;4.940;2023-06-14T14:53:07;3.70;;;1.83;;
13609;SDS011;6876;50.788;4.940;2023-06-14T14:55:54;6.75;;;2.42;;
13609;SDS011;6876;50.788;4.940;2023-06-14T14:58:42;25.88;;;3.33;;
13609;SDS011;6876;50.788;4.940;2023-06-14T15:01:29;10.60;;;2.40;;
13609;SDS011;6876;50.788;4.940;2023-06-14T15:04:16;5.45;;;2.22;;
13609;SDS011;6876;50.788;4.940;2023-06-14T15:07:05;4.63;;;2.08;;
13609;SDS011;6876;50.788;4.940;2023-06-14T15:09:52;2.83;;;1.77;;
13609;SDS011;6876;50.788;4.940;2023-06-14T15:12:40;8.07;;;2.20;;
13609;SDS011;6876;50.788;4.940;2023-06-14T15:15:27;4.22;;;1.85;;
13609;SDS011;6876;50.788;4.940;2023-06-14T15:18:14;4.03;;;2.13;;
13609;SDS011;6876;50.788;4.940;2023-06-14T15:21:02;4.53;;;2.00;;
13609;SDS011;6876;50.788;4.940;2023-06-14T15:23:51;4.28;;;1.83;;
13609;SDS011;6876;50.788;4.940;2023-06-14T15:26:38;3.20;;;2.03;;
13609;SDS011;6876;50.788;4.940;2023-06-14T15:29:25;8.48;;;1.88;;
13609;SDS011;6876;50.788;4.940;2023-06-14T15:32:13;2.67;;;1.85;;
13609;SDS011;6876;50.788;4.940;2023-06-14T15:35:00;4.47;;;1.90;;
13609;SDS011;6876;50.788;4.940;2023-06-14T15:37:47;9.93;;;2.10;;
13609;SDS011;6876;50.788;4.940;2023-06-14T15:40:36;8.88;;;2.10;;
13609;SDS011;6876;50.788;4.940;2023-06-14T15:43:23;2.90;;;1.90;;
13609;SDS011;6876;50.788;4.940;2023-06-14T15:46:10;5.72;;;2.13;;
13609;SDS011;6876;50.788;4.940;2023-06-14T15:48:58;5.22;;;1.75;;
13609;SDS011;6876;50.788;4.940;2023-06-14T15:51:45;7.45;;;2.10;;
13609;SDS011;6876;50.788;4.940;2023-06-14T15:54:32;4.72;;;1.98;;
13609;SDS011;6876;50.788;4.940;2023-06-14T15:57:21;2.78;;;1.70;;
13609;SDS011;6876;50.788;4.940;2023-06-14T16:00:09;8.45;;;2.20;;
13609;SDS011;6876;50.788;4.940;2023-06-14T16:02:57;5.43;;;2.03;;
13609;SDS011;6876;50.788;4.940;2023-06-14T16:05:45;11.77;;;2.40;;
13609;SDS011;6876;50.788;4.940;2023-06-14T16:08:32;7.80;;;2.00;;
13609;SDS011;6876;50.788;4.940;2023-06-14T16:11:19;7.35;;;2.15;;
13609;SDS011;6876;50.788;4.940;2023-06-14T16:14:08;4.63;;;1.95;;
13609;SDS011;6876;50.788;4.940;2023-06-14T16:16:55;7.30;;;1.63;;
13609;SDS011;6876;50.788;4.940;2023-06-14T16:19:42;7.43;;;1.88;;
13609;SDS011;6876;50.788;4.940;2023-06-14T16:22:30;4.57;;;1.90;;
13609;SDS011;6876;50.788;4.940;2023-06-14T16:25:17;4.90;;;1.83;;
13609;SDS011;6876;50.788;4.940;2023-06-14T16:28:04;3.17;;;1.50;;
13609;SDS011;6876;50.788;4.940;2023-06-14T16:30:53;8.30;;;1.60;;
13609;SDS011;6876;50.788;4.940;2023-06-14T16:33:40;5.00;;;1.48;;
13609;SDS011;6876;50.788;4.940;2023-06-14T16:36:28;3.17;;;1.30;;
13609;SDS011;6876;50.788;4.940;2023-06-14T16:39:15;5.72;;;1.58;;
13609;SDS011;6876;50.788;4.940;2023-06-14T16:42:02;19.75;;;2.30;;
13609;SDS011;6876;50.788;4.940;2023-06-14T16:44:50;29.40;;;2.72;;
13609;SDS011;6876;50.788;4.940;2023-06-14T16:47:39;20.27;;;2.78;;
13609;SDS011;6876;50.788;4.940;2023-06-14T16:50:26;8.85;;;1.90;;
13609;SDS011;6876;50.788;4.940;2023-06-14T16:53:15;10.05;;;2.00;;
13609;SDS011;6876;50.788;4.940;2023-06-14T16:56:02;8.57;;;2.05;;
13609;SDS011;6876;50.788;4.940;2023-06-14T16:58:51;9.75;;;1.80;;
13609;SDS011;6876;50.788;4.940;2023-06-14T17:01:39;7.88;;;1.67;;
13609;SDS011;6876;50.788;4.940;2023-06-14T17:04:28;9.57;;;1.92;;
13609;SDS011;6876;50.788;4.940;2023-06-14T17:07:15;8.43;;;1.85;;
13609;SDS011;6876;50.788;4.940;2023-06-14T17:10:02;1.85;;;1.55;;
13609;SDS011;6876;50.788;4.940;2023-06-14T17:12:50;5.18;;;1.83;;